sensor_id;sensor_type;location;lat;lon;timestamp;pressure;altitude;pressure_sealevel;temperature;humidity
13456;BME280;6800;50.940;6.940;2024-03-02T00:02:21;99361.47;;;16.03;42.43
13456;BME280;6800;50.940;6.940;2024-03-02T00:06:23;99365.66;;;16.14;42.01
13456;BME280;6800;50.940;6.940;2024-03-02T00:10:27;99363.84;;;15.89;42.64
13456;BME280;6800;50.940;6.940;2024-03-02T00:14:31;99362.25;;;16.47;41.35
13456;BME280;6800;50.940;6.940;2024-03-02T00:18:34;99377.31;;;15.50;43.29
13456;BME280;6800;50.940;6.940;2024-03-02T00:22:36;99356.75;;;16.58;41.25
13456;BME280;6800;50.940;6.940;2024-03-02T00:26:38;99355.91;;;16.32;41.77
13456;BME280;6800;50.940;6.940;2024-03-02T00:30:47;99342.97;;;16.80;40.87
13456;BME280;6800;50.940;6.940;2024-03-02T00:34:52;99352.94;;;16.35;41.74
13456;BME280;6800;50.940;6.940;2024-03-02T00:38:54;99352.56;;;16.22;42.58
13456;BME280;6800;50.940;6.940;2024-03-02T00:42:56;99360.22;;;16.07;42.62
13456;BME280;6800;50.940;6.940;2024-03-02T00:46:58;99342.94;;;16.38;41.58
13456;BME280;6800;50.940;6.940;2024-03-02T00:51:04;99342.16;;;16.80;40.65
13456;BME280;6800;50.940;6.940;2024-03-02T00:55:06;99345.66;;;16.29;41.70
13456;BME280;6800;50.940;6.940;2024-03-02T00:59:10;99348.84;;;16.32;41.51
13456;BME280;6800;50.940;6.940;2024-03-02T01:03:12;99344.03;;;16.28;41.52
13456;BME280;6800;50.940;6.940;2024-03-02T01:07:13;99349.97;;;16.30;41.45
13456;BME280;6800;50.940;6.940;2024-03-02T01:11:15;99343.03;;;16.03;42.03
13456;BME280;6800;50.940;6.940;2024-03-02T01:15:17;99337.97;;;16.10;41.36
13456;BME280;6800;50.940;6.940;2024-03-02T01:19:18;99346.63;;;16.20;41.68
13456;BME280;6800;50.940;6.940;2024-03-02T01:23:20;99337.47;;;15.81;42.19
13456;BME280;6800;50.940;6.940;2024-03-02T01:27:22;99341.75;;;15.82;42.24
13456;BME280;6800;50.940;6.940;2024-03-02T01:31:23;99340.28;;;16.05;41.93
13456;BME280;6800;50.940;6.940;2024-03-02T01:35:26;99343.03;;;16.29;41.12
13456;BME280;6800;50.940;6.940;2024-03-02T01:39:28;99339.59;;;16.03;42.21
13456;BME280;6800;50.940;6.940;2024-03-02T01:43:29;99338.94;;;16.01;42.37
13456;BME280;6800;50.940;6.940;2024-03-02T01:47:31;99325.44;;;16.55;41.00
13456;BME280;6800;50.940;6.940;2024-03-02T01:51:33;99327.19;;;15.95;41.87
13456;BME280;6800;50.940;6.940;2024-03-02T01:55:35;99327.59;;;16.34;41.17
13456;BME280;6800;50.940;6.940;2024-03-02T01:59:37;99317.50;;;15.96;42.26
13456;BME280;6800;50.940;6.940;2024-03-02T02:03:38;99331.19;;;16.33;41.42
13456;BME280;6800;50.940;6.940;2024-03-02T02:07:42;99319.22;;;16.05;41.60
13456;BME280;6800;50.940;6.940;2024-03-02T02:11:44;99314.00;;;16.47;40.65
13456;BME280;6800;50.940;6.940;2024-03-02T02:15:45;99313.22;;;16.54;40.72
13456;BME280;6800;50.940;6.940;2024-03-02T02:19:47;99310.69;;;16.86;40.05
13456;BME280;6800;50.940;6.940;2024-03-02T02:23:49;99318.09;;;15.82;42.02
13456;BME280;6800;50.940;6.940;2024-03-02T02:27:52;99310.22;;;16.49;40.68
13456;BME280;6800;50.940;6.940;2024-03-02T02:31:54;99309.44;;;16.98;40.12
13456;BME280;6800;50.940;6.940;2024-03-02T02:35:55;99304.94;;;16.91;39.84
13456;BME280;6800;50.940;6.940;2024-03-02T02:39:57;99304.53;;;16.62;40.49
13456;BME280;6800;50.940;6.940;2024-03-02T02:43:58;99298.34;;;16.45;41.04
13456;BME280;6800;50.940;6.940;2024-03-02T02:48:00;99307.88;;;16.38;41.03
13456;BME280;6800;50.940;6.940;2024-03-02T02:52:12;99298.19;;;16.88;40.07
13456;BME280;6800;50.940;6.940;2024-03-02T02:56:16;99301.50;;;16.49;40.78
13456;BME280;6800;50.940;6.940;2024-03-02T03:00:18;99303.69;;;16.27;41.40
13456;BME280;6800;50.940;6.940;2024-03-02T03:04:21;99295.72;;;16.79;40.26
13456;BME280;6800;50.940;6.940;2024-03-02T03:08:23;99306.75;;;16.49;40.76
13456;BME280;6800;50.940;6.940;2024-03-02T03:12:24;99309.38;;;16.40;40.98
13456;BME280;6800;50.940;6.940;2024-03-02T03:16:26;99305.53;;;16.35;41.15
13456;BME280;6800;50.940;6.940;2024-03-02T03:20:28;99309.97;;;17.26;38.64
13456;BME280;6800;50.940;6.940;2024-03-02T03:24:29;99317.47;;;16.81;40.05
13456;BME280;6800;50.940;6.940;2024-03-02T03:28:31;99315.19;;;16.86;39.68
13456;BME280;6800;50.940;6.940;2024-03-02T03:32:32;99323.56;;;16.81;39.90
13456;BME280;6800;50.940;6.940;2024-03-02T03:36:34;99319.44;;;16.87;39.73
13456;BME280;6800;50.940;6.940;2024-03-02T03:40:35;99331.81;;;16.94;39.78
13456;BME280;6800;50.940;6.940;2024-03-02T03:44:37;99334.78;;;16.91;39.15
13456;BME280;6800;50.940;6.940;2024-03-02T03:48:40;99325.84;;;16.84;39.97
13456;BME280;6800;50.940;6.940;2024-03-02T03:52:43;99331.38;;;16.31;40.27
13456;BME280;6800;50.940;6.940;2024-03-02T03:56:45;99323.38;;;15.90;41.75
13456;BME280;6800;50.940;6.940;2024-03-02T04:00:46;99323.41;;;16.49;40.80
13456;BME280;6800;50.940;6.940;2024-03-02T04:04:48;99328.66;;;16.15;41.11
13456;BME280;6800;50.940;6.940;2024-03-02T04:08:49;99329.88;;;16.63;40.44
13456;BME280;6800;50.940;6.940;2024-03-02T04:12:51;99332.69;;;16.35;40.86
13456;BME280;6800;50.940;6.940;2024-03-02T04:16:53;99331.06;;;16.34;40.91
13456;BME280;6800;50.940;6.940;2024-03-02T04:20:54;99345.75;;;16.11;41.31
13456;BME280;6800;50.940;6.940;2024-03-02T04:24:56;99337.50;;;16.40;40.44
13456;BME280;6800;50.940;6.940;2024-03-02T04:28:57;99336.66;;;16.06;41.56
13456;BME280;6800;50.940;6.940;2024-03-02T04:32:59;99344.53;;;16.06;40.82
13456;BME280;6800;50.940;6.940;2024-03-02T04:37:01;99353.34;;;16.48;40.89
13456;BME280;6800;50.940;6.940;2024-03-02T04:41:04;99357.91;;;16.64;40.54
13456;BME280;6800;50.940;6.940;2024-03-02T04:45:07;99354.19;;;16.49;40.45
13456;BME280;6800;50.940;6.940;2024-03-02T04:49:08;99355.25;;;16.56;40.25
13456;BME280;6800;50.940;6.940;2024-03-02T04:53:10;99365.66;;;16.14;41.08
13456;BME280;6800;50.940;6.940;2024-03-02T04:57:12;99371.06;;;16.12;41.27
13456;BME280;6800;50.940;6.940;2024-03-02T05:01:13;99372.41;;;16.42;40.54
13456;BME280;6800;50.940;6.940;2024-03-02T05:05:15;99372.22;;;16.10;41.25
13456;BME280;6800;50.940;6.940;2024-03-02T05:09:16;99376.47;;;15.85;41.97
13456;BME280;6800;50.940;6.940;2024-03-02T05:13:18;99365.97;;;16.11;41.40
13456;BME280;6800;50.940;6.940;2024-03-02T05:17:22;99361.94;;;15.99;41.60
13456;BME280;6800;50.940;6.940;2024-03-02T05:21:23;99345.38;;;16.06;41.59
13456;BME280;6800;50.940;6.940;2024-03-02T05:25:25;99355.31;;;15.95;41.74
13456;BME280;6800;50.940;6.940;2024-03-02T05:29:26;99352.59;;;16.04;41.71
13456;BME280;6800;50.940;6.940;2024-03-02T05:33:28;99350.56;;;15.73;42.38
13456;BME280;6800;50.940;6.940;2024-03-02T05:37:31;99346.47;;;15.96;42.05
13456;BME280;6800;50.940;6.940;2024-03-02T05:41:33;99354.25;;;15.27;43.40
13456;BME280;6800;50.940;6.940;2024-03-02T05:45:34;99351.97;;;15.85;42.05
13456;BME280;6800;50.940;6.940;2024-03-02T05:49:36;99349.75;;;15.98;42.07
13456;BME280;6800;50.940;6.940;2024-03-02T05:53:37;99367.03;;;15.57;43.17
13456;BME280;6800;50.940;6.940;2024-03-02T05:57:40;99362.38;;;15.51;43.46
13456;BME280;6800;50.940;6.940;2024-03-02T06:01:46;99365.19;;;15.40;43.86
13456;BME280;6800;50.940;6.940;2024-03-02T06:05:54;99371.50;;;15.12;43.66
13456;BME280;6800;50.940;6.940;2024-03-02T06:09:56;99371.00;;;15.79;42.22
13456;BME280;6800;50.940;6.940;2024-03-02T06:13:58;99364.50;;;15.91;42.11
13456;BME280;6800;50.940;6.940;2024-03-02T06:17:59;99378.44;;;15.66;42.51
13456;BME280;6800;50.940;6.940;2024-03-02T06:22:04;99377.31;;;15.50;42.89
13456;BME280;6800;50.940;6.940;2024-03-02T06:26:06;99380.25;;;15.65;42.36
13456;BME280;6800;50.940;6.940;2024-03-02T06:30:09;99379.56;;;15.81;42.16
13456;BME280;6800;50.940;6.940;2024-03-02T06:34:10;99385.75;;;16.15;41.48
13456;BME280;6800;50.940;6.940;2024-03-02T06:38:13;99393.72;;;15.80;42.30
13456;BME280;6800;50.940;6.940;2024-03-02T06:42:14;99388.53;;;15.70;42.50
13456;BME280;6800;50.940;6.940;2024-03-02T06:46:16;99403.25;;;15.81;42.20
13456;BME280;6800;50.940;6.940;2024-03-02T06:50:17;99403.25;;;15.63;42.64
13456;BME280;6800;50.940;6.940;2024-03-02T06:54:18;99397.81;;;15.82;42.51
13456;BME280;6800;50.940;6.940;2024-03-02T06:58:20;99388.56;;;15.96;42.08
13456;BME280;6800;50.940;6.940;2024-03-02T07:02:21;99406.50;;;16.18;41.53
13456;BME280;6800;50.940;6.940;2024-03-02T07:06:24;99408.38;;;16.08;41.78
13456;BME280;6800;50.940;6.940;2024-03-02T07:10:27;99409.38;;;16.07;41.77
13456;BME280;6800;50.940;6.940;2024-03-02T07:14:28;99416.69;;;16.38;41.46
13456;BME280;6800;50.940;6.940;2024-03-02T07:18:50;99421.53;;;15.65;42.91
13456;BME280;6800;50.940;6.940;2024-03-02T07:22:53;99420.13;;;16.13;41.88
13456;BME280;6800;50.940;6.940;2024-03-02T07:26:54;99430.56;;;15.80;42.39
13456;BME280;6800;50.940;6.940;2024-03-02T07:31:00;99437.53;;;15.53;42.86
13456;BME280;6800;50.940;6.940;2024-03-02T07:35:02;99446.69;;;15.49;43.14
13456;BME280;6800;50.940;6.940;2024-03-02T07:39:05;99439.75;;;16.45;41.45
13456;BME280;6800;50.940;6.940;2024-03-02T07:43:06;99439.00;;;16.52;40.71
13456;BME280;6800;50.940;6.940;2024-03-02T07:47:08;99425.94;;;16.68;40.88
13456;BME280;6800;50.940;6.940;2024-03-02T07:51:10;99423.97;;;17.04;39.61
13456;BME280;6800;50.940;6.940;2024-03-02T07:55:11;99428.09;;;17.06;39.88
13456;BME280;6800;50.940;6.940;2024-03-02T07:59:15;99440.13;;;17.51;39.09
13456;BME280;6800;50.940;6.940;2024-03-02T08:03:17;99440.31;;;17.65;38.74
13456;BME280;6800;50.940;6.940;2024-03-02T08:07:19;99446.59;;;17.80;38.51
13456;BME280;6800;50.940;6.940;2024-03-02T08:11:21;99449.59;;;19.05;36.28
13456;BME280;6800;50.940;6.940;2024-03-02T08:15:22;99455.00;;;19.58;35.23
13456;BME280;6800;50.940;6.940;2024-03-02T08:19:25;99459.38;;;20.42;33.98
13456;BME280;6800;50.940;6.940;2024-03-02T08:23:27;99454.19;;;21.21;32.66
13456;BME280;6800;50.940;6.940;2024-03-02T08:27:28;99453.34;;;22.07;31.33
13456;BME280;6800;50.940;6.940;2024-03-02T08:31:30;99462.00;;;21.94;31.03
13456;BME280;6800;50.940;6.940;2024-03-02T08:35:31;99457.25;;;22.11;31.01
13456;BME280;6800;50.940;6.940;2024-03-02T08:39:37;99450.41;;;22.78;29.88
13456;BME280;6800;50.940;6.940;2024-03-02T08:43:41;99441.63;;;22.22;30.07
13456;BME280;6800;50.940;6.940;2024-03-02T08:47:43;99440.22;;;22.54;30.25
13456;BME280;6800;50.940;6.940;2024-03-02T08:51:45;99434.53;;;22.08;30.37
13456;BME280;6800;50.940;6.940;2024-03-02T08:55:56;99446.34;;;22.06;30.92
13456;BME280;6800;50.940;6.940;2024-03-02T09:00:03;99445.69;;;21.61;31.35
13456;BME280;6800;50.940;6.940;2024-03-02T09:04:06;99447.28;;;23.37;29.45
13456;BME280;6800;50.940;6.940;2024-03-02T09:08:08;99449.28;;;22.60;29.73
13456;BME280;6800;50.940;6.940;2024-03-02T09:12:09;99455.00;;;22.35;30.73
13456;BME280;6800;50.940;6.940;2024-03-02T09:16:12;99452.59;;;23.37;29.35
13456;BME280;6800;50.940;6.940;2024-03-02T09:20:13;99447.44;;;24.54;27.62
13456;BME280;6800;50.940;6.940;2024-03-02T09:24:15;99436.47;;;25.66;25.67
13456;BME280;6800;50.940;6.940;2024-03-02T09:28:18;99438.69;;;25.18;26.64
13456;BME280;6800;50.940;6.940;2024-03-02T09:32:20;99445.66;;;26.57;25.06
13456;BME280;6800;50.940;6.940;2024-03-02T09:36:22;99440.97;;;27.31;22.90
13456;BME280;6800;50.940;6.940;2024-03-02T09:40:24;99446.59;;;25.88;25.21
13456;BME280;6800;50.940;6.940;2024-03-02T09:44:26;99443.31;;;24.91;26.30
13456;BME280;6800;50.940;6.940;2024-03-02T09:48:27;99438.84;;;24.26;27.30
13456;BME280;6800;50.940;6.940;2024-03-02T09:52:30;99435.19;;;23.41;28.47
13456;BME280;6800;50.940;6.940;2024-03-02T09:56:32;99434.75;;;24.17;27.68
13456;BME280;6800;50.940;6.940;2024-03-02T10:00:33;99427.72;;;24.75;26.27
13456;BME280;6800;50.940;6.940;2024-03-02T10:04:35;99430.50;;;25.64;26.49
13456;BME280;6800;50.940;6.940;2024-03-02T10:08:43;99437.66;;;23.01;28.97
13456;BME280;6800;50.940;6.940;2024-03-02T10:12:45;99441.94;;;22.62;29.85
13456;BME280;6800;50.940;6.940;2024-03-02T10:16:47;99431.44;;;25.76;25.57
13456;BME280;6800;50.940;6.940;2024-03-02T10:20:50;99444.88;;;23.55;28.09
13456;BME280;6800;50.940;6.940;2024-03-02T10:24:51;99439.41;;;23.82;28.26
13456;BME280;6800;50.940;6.940;2024-03-02T10:28:59;99425.22;;;25.00;26.59
13456;BME280;6800;50.940;6.940;2024-03-02T10:33:02;99416.03;;;26.52;25.04
13456;BME280;6800;50.940;6.940;2024-03-02T10:37:05;99418.97;;;25.19;25.32
13456;BME280;6800;50.940;6.940;2024-03-02T10:41:07;99410.25;;;26.05;24.78
13456;BME280;6800;50.940;6.940;2024-03-02T10:45:12;99403.75;;;27.53;23.63
13456;BME280;6800;50.940;6.940;2024-03-02T10:49:16;99413.78;;;23.81;27.20
13456;BME280;6800;50.940;6.940;2024-03-02T10:53:18;99397.19;;;25.15;25.86
13456;BME280;6800;50.940;6.940;2024-03-02T10:57:21;99412.25;;;25.03;25.66
13456;BME280;6800;50.940;6.940;2024-03-02T11:01:25;99389.69;;;25.37;25.80
13456;BME280;6800;50.940;6.940;2024-03-02T11:05:28;99394.44;;;25.35;26.07
13456;BME280;6800;50.940;6.940;2024-03-02T11:09:37;99396.94;;;24.66;26.18
13456;BME280;6800;50.940;6.940;2024-03-02T11:13:42;99379.41;;;25.40;26.01
13456;BME280;6800;50.940;6.940;2024-03-02T11:17:46;99379.25;;;24.85;26.44
13456;BME280;6800;50.940;6.940;2024-03-02T11:21:48;99377.31;;;24.28;27.35
13456;BME280;6800;50.940;6.940;2024-03-02T11:25:50;99384.25;;;24.42;27.15
13456;BME280;6800;50.940;6.940;2024-03-02T11:29:51;99389.53;;;25.32;26.21
13456;BME280;6800;50.940;6.940;2024-03-02T11:33:53;99383.38;;;24.61;26.59
13456;BME280;6800;50.940;6.940;2024-03-02T11:37:56;99380.81;;;24.22;27.62
13456;BME280;6800;50.940;6.940;2024-03-02T11:42:00;99390.47;;;26.06;25.56
13456;BME280;6800;50.940;6.940;2024-03-02T11:46:06;99402.75;;;24.30;27.20
13456;BME280;6800;50.940;6.940;2024-03-02T11:50:11;99386.38;;;25.04;26.43
13456;BME280;6800;50.940;6.940;2024-03-02T11:54:13;99393.41;;;25.36;25.48
13456;BME280;6800;50.940;6.940;2024-03-02T11:58:15;99388.53;;;23.84;28.11
13456;BME280;6800;50.940;6.940;2024-03-02T12:02:22;99389.94;;;23.54;28.94
13456;BME280;6800;50.940;6.940;2024-03-02T12:06:24;99376.66;;;21.26;32.13
13456;BME280;6800;50.940;6.940;2024-03-02T12:10:27;99376.31;;;21.92;31.47
13456;BME280;6800;50.940;6.940;2024-03-02T12:14:29;99377.72;;;21.88;31.54
13456;BME280;6800;50.940;6.940;2024-03-02T12:18:31;99368.78;;;22.23;31.35
13456;BME280;6800;50.940;6.940;2024-03-02T12:22:32;99364.41;;;23.18;29.77
13456;BME280;6800;50.940;6.940;2024-03-02T12:26:34;99347.66;;;21.24;32.37
13456;BME280;6800;50.940;6.940;2024-03-02T12:30:36;99345.13;;;21.80;31.68
13456;BME280;6800;50.940;6.940;2024-03-02T12:34:38;99336.63;;;22.18;31.36
13456;BME280;6800;50.940;6.940;2024-03-02T12:38:45;99342.13;;;22.79;29.93
13456;BME280;6800;50.940;6.940;2024-03-02T12:42:49;99342.03;;;22.59;30.50
13456;BME280;6800;50.940;6.940;2024-03-02T12:46:50;99333.88;;;23.21;29.94
13456;BME280;6800;50.940;6.940;2024-03-02T12:50:56;99335.38;;;21.87;32.32
13456;BME280;6800;50.940;6.940;2024-03-02T12:54:58;99325.16;;;23.47;29.67
13456;BME280;6800;50.940;6.940;2024-03-02T12:59:00;99317.81;;;22.47;31.23
13456;BME280;6800;50.940;6.940;2024-03-02T13:03:02;99326.63;;;22.95;30.32
13456;BME280;6800;50.940;6.940;2024-03-02T13:07:04;99325.44;;;23.04;29.85
13456;BME280;6800;50.940;6.940;2024-03-02T13:11:08;99313.44;;;22.68;31.06
13456;BME280;6800;50.940;6.940;2024-03-02T13:15:09;99326.84;;;22.53;31.03
13456;BME280;6800;50.940;6.940;2024-03-02T13:19:17;99310.59;;;22.35;31.81
13456;BME280;6800;50.940;6.940;2024-03-02T13:23:20;99321.06;;;22.77;31.20
13456;BME280;6800;50.940;6.940;2024-03-02T13:27:22;99321.94;;;21.46;32.56
13456;BME280;6800;50.940;6.940;2024-03-02T13:31:23;99313.00;;;20.96;33.11
13456;BME280;6800;50.940;6.940;2024-03-02T13:35:25;99313.50;;;21.63;32.62
13456;BME280;6800;50.940;6.940;2024-03-02T13:39:26;99305.41;;;22.61;31.13
13456;BME280;6800;50.940;6.940;2024-03-02T13:43:28;99305.25;;;22.01;32.02
13456;BME280;6800;50.940;6.940;2024-03-02T13:47:33;99297.44;;;21.71;31.87
13456;BME280;6800;50.940;6.940;2024-03-02T13:51:34;99295.56;;;22.21;31.39
13456;BME280;6800;50.940;6.940;2024-03-02T13:55:39;99291.66;;;22.58;30.63
13456;BME280;6800;50.940;6.940;2024-03-02T13:59:43;99294.22;;;22.38;30.73
13456;BME280;6800;50.940;6.940;2024-03-02T14:03:45;99291.94;;;22.63;30.46
13456;BME280;6800;50.940;6.940;2024-03-02T14:07:47;99285.00;;;22.34;30.89
13456;BME280;6800;50.940;6.940;2024-03-02T14:11:52;99278.84;;;22.68;30.39
13456;BME280;6800;50.940;6.940;2024-03-02T14:15:53;99269.81;;;21.94;31.73
13456;BME280;6800;50.940;6.940;2024-03-02T14:19:55;99273.78;;;22.04;31.14
13456;BME280;6800;50.940;6.940;2024-03-02T14:23:58;99270.72;;;22.48;31.01
13456;BME280;6800;50.940;6.940;2024-03-02T14:28:00;99273.81;;;22.45;31.13
13456;BME280;6800;50.940;6.940;2024-03-02T14:32:24;99268.44;;;22.38;31.18
13456;BME280;6800;50.940;6.940;2024-03-02T14:36:26;99256.47;;;23.29;29.72
13456;BME280;6800;50.940;6.940;2024-03-02T14:40:29;99239.75;;;22.27;31.08
13456;BME280;6800;50.940;6.940;2024-03-02T14:44:31;99248.91;;;22.12;31.29
13456;BME280;6800;50.940;6.940;2024-03-02T14:48:32;99256.28;;;21.61;32.16
13456;BME280;6800;50.940;6.940;2024-03-02T14:52:34;99250.03;;;22.37;31.20
13456;BME280;6800;50.940;6.940;2024-03-02T14:56:36;99240.22;;;22.91;30.79
13456;BME280;6800;50.940;6.940;2024-03-02T15:00:37;99232.72;;;22.54;31.10
13456;BME280;6800;50.940;6.940;2024-03-02T15:04:39;99231.91;;;22.53;30.93
13456;BME280;6800;50.940;6.940;2024-03-02T15:08:41;99235.41;;;22.13;31.38
13456;BME280;6800;50.940;6.940;2024-03-02T15:12:45;99231.44;;;22.37;30.45
13456;BME280;6800;50.940;6.940;2024-03-02T15:16:47;99234.03;;;21.90;31.17
13456;BME280;6800;50.940;6.940;2024-03-02T15:20:50;99232.28;;;22.50;30.60
13456;BME280;6800;50.940;6.940;2024-03-02T15:24:52;99227.75;;;22.44;30.61
13456;BME280;6800;50.940;6.940;2024-03-02T15:28:55;99226.84;;;22.18;31.07
13456;BME280;6800;50.940;6.940;2024-03-02T15:32:58;99217.91;;;21.70;30.92
13456;BME280;6800;50.940;6.940;2024-03-02T15:37:01;99220.03;;;21.81;31.12
13456;BME280;6800;50.940;6.940;2024-03-02T15:41:04;99223.97;;;21.57;31.71
13456;BME280;6800;50.940;6.940;2024-03-02T15:45:06;99210.19;;;22.57;30.45
13456;BME280;6800;50.940;6.940;2024-03-02T15:49:08;99207.97;;;22.53;30.41
13456;BME280;6800;50.940;6.940;2024-03-02T15:53:10;99214.16;;;21.58;31.47
13456;BME280;6800;50.940;6.940;2024-03-02T15:57:11;99208.75;;;21.72;31.52
13456;BME280;6800;50.940;6.940;2024-03-02T16:01:13;99213.53;;;21.56;31.41
13456;BME280;6800;50.940;6.940;2024-03-02T16:05:15;99208.19;;;21.49;31.54
13456;BME280;6800;50.940;6.940;2024-03-02T16:09:18;99205.03;;;21.95;31.16
13456;BME280;6800;50.940;6.940;2024-03-02T16:13:20;99211.56;;;22.33;30.21
13456;BME280;6800;50.940;6.940;2024-03-02T16:17:21;99208.53;;;22.02;30.80
13456;BME280;6800;50.940;6.940;2024-03-02T16:21:23;99203.78;;;21.91;31.16
13456;BME280;6800;50.940;6.940;2024-03-02T16:25:27;99206.81;;;22.22;30.38
13456;BME280;6800;50.940;6.940;2024-03-02T16:29:28;99196.22;;;22.28;30.53
13456;BME280;6800;50.940;6.940;2024-03-02T16:33:32;99200.41;;;21.75;31.37
13456;BME280;6800;50.940;6.940;2024-03-02T16:37:37;99202.75;;;22.26;30.61
13456;BME280;6800;50.940;6.940;2024-03-02T16:41:39;99199.75;;;22.01;30.78
13456;BME280;6800;50.940;6.940;2024-03-02T16:45:45;99190.75;;;22.49;30.37
13456;BME280;6800;50.940;6.940;2024-03-02T16:49:47;99197.22;;;21.87;31.75
13456;BME280;6800;50.940;6.940;2024-03-02T16:53:48;99200.13;;;22.39;30.18
13456;BME280;6800;50.940;6.940;2024-03-02T16:57:50;99207.84;;;21.87;30.74
13456;BME280;6800;50.940;6.940;2024-03-02T17:01:52;99210.41;;;21.73;31.06
13456;BME280;6800;50.940;6.940;2024-03-02T17:05:53;99209.25;;;21.83;31.04
13456;BME280;6800;50.940;6.940;2024-03-02T17:09:56;99228.00;;;22.09;30.54
13456;BME280;6800;50.940;6.940;2024-03-02T17:14:02;99219.63;;;21.77;31.14
13456;BME280;6800;50.940;6.940;2024-03-02T17:18:05;99230.19;;;22.33;30.12
13456;BME280;6800;50.940;6.940;2024-03-02T17:22:06;99228.50;;;22.25;30.36
13456;BME280;6800;50.940;6.940;2024-03-02T17:26:08;99233.91;;;21.76;31.28
13456;BME280;6800;50.940;6.940;2024-03-02T17:30:10;99246.72;;;22.28;30.65
13456;BME280;6800;50.940;6.940;2024-03-02T17:34:14;99248.19;;;21.97;30.90
13456;BME280;6800;50.940;6.940;2024-03-02T17:38:16;99251.25;;;22.34;30.31
13456;BME280;6800;50.940;6.940;2024-03-02T17:42:18;99251.38;;;21.86;31.21
13456;BME280;6800;50.940;6.940;2024-03-02T17:46:19;99249.84;;;21.76;31.47
13456;BME280;6800;50.940;6.940;2024-03-02T17:50:21;99256.81;;;22.05;30.75
13456;BME280;6800;50.940;6.940;2024-03-02T17:54:23;99262.28;;;22.31;30.50
13456;BME280;6800;50.940;6.940;2024-03-02T17:58:24;99259.56;;;21.84;30.87
13456;BME280;6800;50.940;6.940;2024-03-02T18:02:26;99266.31;;;22.21;30.46
13456;BME280;6800;50.940;6.940;2024-03-02T18:06:28;99259.78;;;21.40;31.34
13456;BME280;6800;50.940;6.940;2024-03-02T18:10:30;99265.56;;;21.50;31.46
13456;BME280;6800;50.940;6.940;2024-03-02T18:14:32;99268.72;;;21.12;31.78
13456;BME280;6800;50.940;6.940;2024-03-02T18:18:37;99252.66;;;21.68;31.63
13456;BME280;6800;50.940;6.940;2024-03-02T18:22:41;99251.91;;;21.53;31.18
13456;BME280;6800;50.940;6.940;2024-03-02T18:26:43;99265.75;;;21.70;31.25
13456;BME280;6800;50.940;6.940;2024-03-02T18:30:44;99253.34;;;21.77;31.11
13456;BME280;6800;50.940;6.940;2024-03-02T18:34:46;99254.25;;;20.99;32.16
13456;BME280;6800;50.940;6.940;2024-03-02T18:38:48;99251.66;;;21.97;31.09
13456;BME280;6800;50.940;6.940;2024-03-02T18:42:50;99264.16;;;21.48;32.00
13456;BME280;6800;50.940;6.940;2024-03-02T18:46:52;99261.84;;;21.45;31.67
13456;BME280;6800;50.940;6.940;2024-03-02T18:50:53;99255.22;;;21.34;32.16
13456;BME280;6800;50.940;6.940;2024-03-02T18:54:55;99271.81;;;21.85;31.91
13456;BME280;6800;50.940;6.940;2024-03-02T18:58:56;99270.78;;;21.37;32.37
13456;BME280;6800;50.940;6.940;2024-03-02T19:02:58;99274.50;;;21.22;32.83
13456;BME280;6800;50.940;6.940;2024-03-02T19:07:03;99264.84;;;21.14;33.04
13456;BME280;6800;50.940;6.940;2024-03-02T19:11:05;99268.56;;;21.20;32.99
13456;BME280;6800;50.940;6.940;2024-03-02T19:15:07;99264.84;;;21.14;33.08
13456;BME280;6800;50.940;6.940;2024-03-02T19:19:08;99267.47;;;20.93;33.16
13456;BME280;6800;50.940;6.940;2024-03-02T19:23:10;99252.63;;;21.41;32.80
13456;BME280;6800;50.940;6.940;2024-03-02T19:27:18;99241.91;;;20.71;33.74
13456;BME280;6800;50.940;6.940;2024-03-02T19:31:20;99240.44;;;21.25;33.27
13456;BME280;6800;50.940;6.940;2024-03-02T19:35:21;99233.41;;;21.39;32.88
13456;BME280;6800;50.940;6.940;2024-03-02T19:39:23;99232.72;;;20.88;33.43
13456;BME280;6800;50.940;6.940;2024-03-02T19:43:28;99221.06;;;21.04;33.58
13456;BME280;6800;50.940;6.940;2024-03-02T19:47:30;99226.50;;;21.44;32.84
13456;BME280;6800;50.940;6.940;2024-03-02T19:51:33;99226.91;;;21.41;32.77
13456;BME280;6800;50.940;6.940;2024-03-02T19:55:35;99220.69;;;21.55;33.04
13456;BME280;6800;50.940;6.940;2024-03-02T19:59:38;99219.00;;;21.48;32.62
13456;BME280;6800;50.940;6.940;2024-03-02T20:03:40;99218.06;;;21.62;32.19
13456;BME280;6800;50.940;6.940;2024-03-02T20:07:42;99217.84;;;20.72;34.17
13456;BME280;6800;50.940;6.940;2024-03-02T20:11:43;99196.97;;;21.26;33.04
13456;BME280;6800;50.940;6.940;2024-03-02T20:15:46;99203.28;;;21.25;33.01
13456;BME280;6800;50.940;6.940;2024-03-02T20:19:48;99198.75;;;21.47;32.96
13456;BME280;6800;50.940;6.940;2024-03-02T20:23:49;99199.34;;;21.42;32.94
13456;BME280;6800;50.940;6.940;2024-03-02T20:27:50;99193.69;;;21.24;33.16
13456;BME280;6800;50.940;6.940;2024-03-02T20:31:52;99199.22;;;21.29;33.08
13456;BME280;6800;50.940;6.940;2024-03-02T20:35:58;99191.75;;;21.12;33.44
13456;BME280;6800;50.940;6.940;2024-03-02T20:39:59;99184.19;;;21.36;33.10
13456;BME280;6800;50.940;6.940;2024-03-02T20:44:02;99177.63;;;21.32;32.88
13456;BME280;6800;50.940;6.940;2024-03-02T20:48:07;99180.38;;;21.45;32.90
13456;BME280;6800;50.940;6.940;2024-03-02T20:52:09;99184.59;;;21.12;34.09
13456;BME280;6800;50.940;6.940;2024-03-02T20:56:11;99182.94;;;21.11;34.67
13456;BME280;6800;50.940;6.940;2024-03-02T21:00:13;99185.63;;;21.39;34.05
13456;BME280;6800;50.940;6.940;2024-03-02T21:04:15;99177.63;;;21.32;33.33
13456;BME280;6800;50.940;6.940;2024-03-02T21:08:17;99182.03;;;20.83;34.08
13456;BME280;6800;50.940;6.940;2024-03-02T21:12:19;99187.91;;;21.14;33.49
13456;BME280;6800;50.940;6.940;2024-03-02T21:16:21;99185.75;;;21.03;33.81
13456;BME280;6800;50.940;6.940;2024-03-02T21:20:22;99189.38;;;21.02;34.21
13456;BME280;6800;50.940;6.940;2024-03-02T21:24:24;99200.19;;;20.79;34.60
13456;BME280;6800;50.940;6.940;2024-03-02T21:28:25;99201.34;;;21.13;33.86
13456;BME280;6800;50.940;6.940;2024-03-02T21:32:27;99207.09;;;21.16;33.84
13456;BME280;6800;50.940;6.940;2024-03-02T21:36:31;99214.84;;;20.40;35.52
13456;BME280;6800;50.940;6.940;2024-03-02T21:40:33;99205.91;;;20.83;34.42